Time,TemperatureF,DewpointF,PressureIn,WindDirection,WindDirectionDegrees,WindSpeedMPH,WindSpeedGustMPH,Humidity,HourlyPrecipIn,Conditions,Clouds,dailyrainin,SoftwareType,DateUTC
2013-01-16 00:11:00,33.6,26.0,30.23,WSW,249,1.0,1.0,74,0.00,,,0.00,weatherlink.com 1.10,2013-01-16 05:11:00,
2013-01-16 00:26:00,33.5,26.0,30.23,WNW,293,0.0,1.0,75,0.00,,,0.00,weatherlink.com 1.10,2013-01-16 05:26:00,
2013-01-16 00:41:00,33.3,27.0,30.24,WNW,294,0.0,0.0,77,0.00,,,0.00,weatherlink.com 1.10,2013-01-16 05:41:00,
2013-01-16 00:56:00,33.0,27.0,30.23,WNW,293,0.0,0.0,78,0.00,,,0.00,weatherlink.com 1.10,2013-01-16 05:56:00,
2013-01-16 01:11:00,32.7,27.0,30.23,WNW,294,1.0,1.0,80,0.00,,,0.00,weatherlink.com 1.10,2013-01-16 06:11:00,
2013-01-16 01:26:00,32.2,27.0,30.22,ESE,120,0.0,0.0,82,0.00,,,0.00,weatherlink.com 1.10,2013-01-16 06:26:00,
2013-01-16 01:41:00,31.3,28.0,30.21,ESE,120,0.0,1.0,86,0.00,,,0.00,weatherlink.com 1.10,2013-01-16 06:41:00,
2013-01-16 01:56:00,30.6,28.0,30.21,ESE,120,0.0,1.0,91,0.00,,,0.00,weatherlink.com 1.10,2013-01-16 06:56:00,
2013-01-16 02:11:00,30.3,28.0,30.20,WNW,296,0.0,1.0,92,0.00,,,0.00,weatherlink.com 1.10,2013-01-16 07:11:00,
2013-01-16 02:26:00,30.2,29.0,30.20,WNW,288,0.0,1.0,93,0.00,,,0.00,weatherlink.com 1.10,2013-01-16 07:26:00,
2013-01-16 02:41:00,30.1,29.0,30.19,WNW,290,0.0,0.0,94,0.00,,,0.00,weatherlink.com 1.10,2013-01-16 07:41:00,
2013-01-16 02:56:00,30.1,29.0,30.19,WNW,284,0.0,0.0,95,0.00,,,0.00,weatherlink.com 1.10,2013-01-16 07:56:00,
2013-01-16 03:11:00,30.1,29.0,30.20,WNW,287,0.0,0.0,95,0.00,,,0.00,weatherlink.com 1.10,2013-01-16 08:11:00,
2013-01-16 03:26:00,29.9,29.0,30.17,NW,304,0.0,1.0,95,0.00,,,0.00,weatherlink.com 1.10,2013-01-16 08:26:00,
2013-01-16 03:41:00,29.9,29.0,30.16,WNW,284,0.0,0.0,95,0.00,,,0.00,weatherlink.com 1.10,2013-01-16 08:41:00,
2013-01-16 03:57:00,29.9,29.0,30.15,WNW,285,0.0,2.0,96,0.00,,,0.00,weatherlink.com 1.10,2013-01-16 08:57:00,
2013-01-16 04:12:00,29.9,29.0,30.14,NW,324,0.0,2.0,96,0.00,,,0.00,weatherlink.com 1.10,2013-01-16 09:12:00,
2013-01-16 04:27:00,29.9,29.0,30.13,NE,41,0.0,1.0,96,0.00,,,0.00,weatherlink.com 1.10,2013-01-16 09:27:00,
2013-01-16 04:42:00,29.8,29.0,30.12,East,85,3.0,3.0,96,0.00,,,0.00,weatherlink.com 1.10,2013-01-16 09:42:00,
2013-01-16 04:57:00,29.8,29.0,30.12,WNW,298,0.0,0.0,96,0.00,,,0.00,weatherlink.com 1.10,2013-01-16 09:57:00,
2013-01-16 05:12:00,29.8,29.0,30.11,WNW,285,0.0,0.0,96,0.00,,,0.00,weatherlink.com 1.10,2013-01-16 10:12:00,
2013-01-16 05:27:00,29.8,29.0,30.10,NW,310,0.0,0.0,96,0.00,,,0.00,weatherlink.com 1.10,2013-01-16 10:27:00,
2013-01-16 05:42:00,29.9,29.0,30.09,South,191,0.0,0.0,96,0.00,,,0.00,weatherlink.com 1.10,2013-01-16 10:42:00,
2013-01-16 05:57:00,30.2,29.0,30.09,South,191,0.0,0.0,96,0.00,,,0.00,weatherlink.com 1.10,2013-01-16 10:57:00,
2013-01-16 06:12:00,30.4,29.0,30.09,WNW,294,1.0,2.0,96,0.00,,,0.00,weatherlink.com 1.10,2013-01-16 11:12:00,
2013-01-16 06:27:00,30.5,30.0,30.09,WNW,294,0.0,0.0,96,0.00,,,0.00,weatherlink.com 1.10,2013-01-16 11:27:00,
2013-01-16 06:42:00,30.5,30.0,30.08,WNW,290,0.0,1.0,96,0.00,,,0.00,weatherlink.com 1.10,2013-01-16 11:42:00,
2013-01-16 06:57:00,30.4,29.0,30.08,West,276,0.0,2.0,96,0.00,,,0.00,weatherlink.com 1.10,2013-01-16 11:57:00,
2013-01-16 07:12:00,30.4,29.0,30.07,NW,308,0.0,0.0,95,0.00,,,0.00,weatherlink.com 1.10,2013-01-16 12:12:00,
2013-01-16 07:27:00,30.5,29.0,30.08,NNE,29,0.0,1.0,95,0.00,,,0.00,weatherlink.com 1.10,2013-01-16 12:27:00,
2013-01-16 07:42:00,30.5,29.0,30.07,SW,233,0.0,1.0,95,0.00,,,0.00,weatherlink.com 1.10,2013-01-16 12:42:00,
2013-01-16 07:57:00,30.6,29.0,30.07,SSW,205,0.0,0.0,95,0.00,,,0.00,weatherlink.com 1.10,2013-01-16 12:57:00,
2013-01-16 08:12:00,30.8,30.0,30.07,East,83,0.0,0.0,95,0.00,,,0.00,weatherlink.com 1.10,2013-01-16 13:12:00,
2013-01-16 08:27:00,31.0,30.0,30.07,West,277,0.0,0.0,94,0.00,,,0.00,weatherlink.com 1.10,2013-01-16 13:27:00,
2013-01-16 08:42:00,31.1,30.0,30.04,West,267,1.0,2.0,94,0.00,,,0.00,weatherlink.com 1.10,2013-01-16 13:42:00,
2013-01-16 08:57:00,31.4,30.0,30.01,WNW,283,0.0,1.0,94,0.00,,,0.00,weatherlink.com 1.10,2013-01-16 13:57:00,
2013-01-16 09:12:00,31.4,30.0,30.01,NW,321,1.0,4.0,94,0.00,,,0.00,weatherlink.com 1.10,2013-01-16 14:12:00,
2013-01-16 09:27:00,31.4,30.0,30.00,NNW,343,0.0,4.0,94,0.00,,,0.00,weatherlink.com 1.10,2013-01-16 14:27:00,
2013-01-16 09:42:00,31.7,30.0,29.97,West,276,0.0,2.0,94,0.00,,,0.00,weatherlink.com 1.10,2013-01-16 14:42:00,
2013-01-16 09:57:00,31.7,30.0,29.96,NNW,337,2.0,4.0,94,0.00,,,0.00,weatherlink.com 1.10,2013-01-16 14:57:00,
2013-01-16 10:12:00,31.7,31.0,29.96,NW,315,1.0,4.0,95,0.00,,,0.00,weatherlink.com 1.10,2013-01-16 15:12:00,
2013-01-16 10:27:00,31.9,31.0,29.96,ESE,123,0.0,2.0,96,0.00,,,0.00,weatherlink.com 1.10,2013-01-16 15:27:00,
2013-01-16 10:42:00,32.4,31.0,29.95,ESE,122,0.0,0.0,96,0.00,,,0.00,weatherlink.com 1.10,2013-01-16 15:42:00,
2013-01-16 10:57:00,32.1,31.0,29.98,NW,311,0.0,2.0,96,0.00,,,0.00,weatherlink.com 1.10,2013-01-16 15:57:00,
2013-01-16 11:12:00,31.9,31.0,29.96,WNW,290,1.0,5.0,96,0.00,,,0.00,weatherlink.com 1.10,2013-01-16 16:12:00,
2013-01-16 11:27:00,32.0,31.0,29.96,NW,321,0.0,2.0,96,0.00,,,0.00,weatherlink.com 1.10,2013-01-16 16:27:00,
2013-01-16 11:42:00,32.1,31.0,29.95,WNW,291,0.0,0.0,97,0.00,,,0.00,weatherlink.com 1.10,2013-01-16 16:42:00,
2013-01-16 11:57:00,32.2,32.0,29.94,WNW,284,0.0,2.0,97,0.00,,,0.00,weatherlink.com 1.10,2013-01-16 16:57:00,
2013-01-16 12:12:00,32.3,31.0,29.94,WNW,293,1.0,2.0,96,0.00,,,0.00,weatherlink.com 1.10,2013-01-16 17:12:00,
2013-01-16 12:27:00,32.3,32.0,29.93,NW,307,1.0,2.0,97,0.00,,,0.00,weatherlink.com 1.10,2013-01-16 17:27:00,
2013-01-16 12:42:00,32.4,32.0,29.89,NW,309,0.0,0.0,97,0.00,,,0.00,weatherlink.com 1.10,2013-01-16 17:42:00,
2013-01-16 12:57:00,32.4,31.0,29.92,WNW,293,2.0,4.0,96,0.00,,,0.00,weatherlink.com 1.10,2013-01-16 17:57:00,
2013-01-16 13:12:00,32.5,32.0,29.86,SE,131,1.0,2.0,96,0.00,,,0.00,weatherlink.com 1.10,2013-01-16 18:12:00,
2013-01-16 13:28:00,32.7,32.0,29.84,WNW,290,0.0,3.0,97,0.00,,,0.00,weatherlink.com 1.10,2013-01-16 18:28:00,
2013-01-16 13:43:00,32.7,32.0,29.83,WNW,297,0.0,3.0,97,0.00,,,0.00,weatherlink.com 1.10,2013-01-16 18:43:00,
2013-01-16 13:58:00,32.9,32.0,29.85,WNW,288,0.0,3.0,97,0.00,,,0.00,weatherlink.com 1.10,2013-01-16 18:58:00,
2013-01-16 14:13:00,32.8,32.0,29.87,WNW,293,1.0,5.0,97,0.00,,,0.00,weatherlink.com 1.10,2013-01-16 19:13:00,
2013-01-16 14:28:00,32.8,32.0,29.88,WNW,291,1.0,3.0,97,0.00,,,0.00,weatherlink.com 1.10,2013-01-16 19:28:00,
2013-01-16 14:43:00,32.9,32.0,29.89,WNW,297,0.0,2.0,97,0.00,,,0.00,weatherlink.com 1.10,2013-01-16 19:43:00,
2013-01-16 14:58:00,32.9,32.0,29.88,ESE,123,0.0,2.0,97,0.00,,,0.00,weatherlink.com 1.10,2013-01-16 19:58:00,
2013-01-16 15:13:00,32.9,32.0,29.87,ESE,110,0.0,1.0,97,0.00,,,0.00,weatherlink.com 1.10,2013-01-16 20:13:00,
2013-01-16 15:28:00,32.9,32.0,29.88,ESE,110,0.0,0.0,97,0.00,,,0.00,weatherlink.com 1.10,2013-01-16 20:28:00,
2013-01-16 15:43:00,32.8,32.0,29.88,NW,316,0.0,2.0,97,0.00,,,0.00,weatherlink.com 1.10,2013-01-16 20:43:00,
2013-01-16 15:58:00,32.8,32.0,29.89,NW,309,0.0,1.0,97,0.00,,,0.00,weatherlink.com 1.10,2013-01-16 20:58:00,
2013-01-16 16:13:00,32.7,32.0,29.88,ESE,115,0.0,1.0,97,0.00,,,0.00,weatherlink.com 1.10,2013-01-16 21:13:00,
2013-01-16 16:28:00,32.7,32.0,29.88,ENE,71,0.0,0.0,98,0.00,,,0.00,weatherlink.com 1.10,2013-01-16 21:28:00,
2013-01-16 16:43:00,32.6,32.0,29.87,East,98,0.0,0.0,98,0.00,,,0.00,weatherlink.com 1.10,2013-01-16 21:43:00,
2013-01-16 16:58:00,32.5,32.0,29.87,East,98,0.0,0.0,98,0.00,,,0.00,weatherlink.com 1.10,2013-01-16 21:58:00,
2013-01-16 17:13:00,32.5,32.0,29.88,ESE,113,0.0,0.0,98,0.00,,,0.00,weatherlink.com 1.10,2013-01-16 22:13:00,
2013-01-16 17:28:00,32.5,32.0,29.88,ESE,113,0.0,0.0,98,0.00,,,0.00,weatherlink.com 1.10,2013-01-16 22:28:00,
2013-01-16 17:43:00,32.5,32.0,29.87,ESE,113,0.0,0.0,98,0.00,,,0.00,weatherlink.com 1.10,2013-01-16 22:43:00,
2013-01-16 17:58:00,32.5,32.0,29.89,ESE,113,0.0,0.0,98,0.00,,,0.00,weatherlink.com 1.10,2013-01-16 22:58:00,
2013-01-16 18:13:00,32.4,32.0,29.88,ESE,113,0.0,0.0,98,0.00,,,0.00,weatherlink.com 1.10,2013-01-16 23:13:00,
2013-01-16 18:28:00,32.4,32.0,29.88,ESE,115,0.0,0.0,98,0.00,,,0.00,weatherlink.com 1.10,2013-01-16 23:28:00,
2013-01-16 18:43:00,32.4,32.0,29.88,ESE,115,0.0,0.0,98,0.00,,,0.00,weatherlink.com 1.10,2013-01-16 23:43:00,
2013-01-16 18:58:00,32.3,32.0,29.87,ESE,115,0.0,0.0,98,0.00,,,0.00,weatherlink.com 1.10,2013-01-16 23:58:00,
2013-01-16 19:13:00,32.3,32.0,29.89,ESE,115,0.0,0.0,98,0.00,,,0.00,weatherlink.com 1.10,2013-01-17 00:13:00,
2013-01-16 19:28:00,32.3,32.0,29.89,ESE,115,0.0,0.0,98,0.01,,,0.01,weatherlink.com 1.10,2013-01-17 00:28:00,
2013-01-16 19:43:00,32.3,32.0,29.88,ESE,115,0.0,0.0,98,0.01,,,0.01,weatherlink.com 1.10,2013-01-17 00:43:00,
2013-01-16 19:58:00,32.3,32.0,29.89,SW,215,0.0,0.0,98,0.01,,,0.01,weatherlink.com 1.10,2013-01-17 00:58:00,
2013-01-16 20:13:00,32.4,32.0,29.89,ESE,123,0.0,3.0,98,0.00,,,0.01,weatherlink.com 1.10,2013-01-17 01:13:00,
2013-01-16 20:28:00,32.4,32.0,29.89,SSE,166,0.0,0.0,98,0.00,,,0.01,weatherlink.com 1.10,2013-01-17 01:28:00,
2013-01-16 20:43:00,32.3,32.0,29.88,SSE,162,0.0,0.0,98,0.00,,,0.01,weatherlink.com 1.10,2013-01-17 01:43:00,
2013-01-16 20:58:00,32.3,32.0,29.89,NW,325,0.0,2.0,98,0.00,,,0.01,weatherlink.com 1.10,2013-01-17 01:58:00,
2013-01-16 21:13:00,32.1,32.0,29.89,ESE,112,0.0,1.0,98,0.00,,,0.01,weatherlink.com 1.10,2013-01-17 02:13:00,
2013-01-16 21:28:00,31.9,31.0,29.89,ESE,112,0.0,0.0,97,0.00,,,0.01,weatherlink.com 1.10,2013-01-17 02:28:00,
2013-01-16 21:43:00,31.7,31.0,29.90,ESE,110,0.0,0.0,97,0.00,,,0.01,weatherlink.com 1.10,2013-01-17 02:43:00,
2013-01-16 21:58:00,31.7,31.0,29.89,NNE,16,0.0,0.0,98,0.00,,,0.01,weatherlink.com 1.10,2013-01-17 02:58:00,
2013-01-16 22:13:00,31.2,31.0,29.89,NNE,12,0.0,0.0,97,0.00,,,0.01,weatherlink.com 1.10,2013-01-17 03:13:00,
2013-01-16 22:28:00,31.3,31.0,29.88,NNE,18,0.0,1.0,97,0.00,,,0.01,weatherlink.com 1.10,2013-01-17 03:28:00,
2013-01-16 22:43:00,30.6,30.0,29.88,NNE,18,0.0,0.0,97,0.00,,,0.01,weatherlink.com 1.10,2013-01-17 03:43:00,
2013-01-16 22:58:00,30.2,30.0,29.88,NNE,27,0.0,0.0,97,0.00,,,0.01,weatherlink.com 1.10,2013-01-17 03:58:00,
2013-01-16 23:13:00,30.0,29.0,29.88,NNE,27,0.0,0.0,97,0.00,,,0.01,weatherlink.com 1.10,2013-01-17 04:13:00,
2013-01-16 23:28:00,30.4,30.0,29.88,ESE,115,0.0,2.0,98,0.00,,,0.01,weatherlink.com 1.10,2013-01-17 04:28:00,
2013-01-16 23:43:00,30.1,30.0,29.88,ESE,115,0.0,0.0,98,0.00,,,0.01,weatherlink.com 1.10,2013-01-17 04:43:00,
2013-01-16 23:58:00,29.3,29.0,29.88,NW,321,0.0,0.0,97,0.00,,,0.01,weatherlink.com 1.10,2013-01-17 04:58:00,